Time;durP1;ratioP1;P1;durP2;ratioP2;P2;SDS_P1;SDS_P2;PMS_P1;PMS_P2;Temp;Humidity;BMP_temperature;BMP_pressure;BME280_temperature;BME280_humidity;BME280_pressure;Samples;Min_cycle;Max_cycle;Signal;HPM_P1;HPM_P2
2022/09/30 00:02:19;;;;;;;5.47;3.43;;;13.60;91.20;;;;;;4906034;29;20209;-71
2022/09/30 00:04:48;;;;;;;4.73;3.47;;;13.60;91.20;;;;;;4896624;29;20417;-71
2022/09/30 00:07:19;;;;;;;3.87;3.20;;;13.60;91.10;;;;;;4885112;29;20475;-71
2022/09/30 00:09:47;;;;;;;3.37;2.87;;;13.60;91.10;;;;;;4921376;29;20439;-71
2022/09/30 00:12:16;;;;;;;4.17;2.70;;;13.50;91.00;;;;;;4891314;29;20541;-71
2022/09/30 00:14:42;;;;;;;4.13;3.13;;;13.50;91.10;;;;;;4884241;29;20512;-71
2022/09/30 00:17:08;;;;;;;3.50;3.00;;;13.50;91.00;;;;;;4898499;29;20438;-71
2022/09/30 00:19:37;;;;;;;4.70;2.83;;;13.50;91.00;;;;;;4913913;29;20433;-71
2022/09/30 00:22:03;;;;;;;4.13;3.13;;;13.50;91.00;;;;;;4904489;29;20684;-71
2022/09/30 00:24:29;;;;;;;3.33;2.73;;;13.50;91.00;;;;;;4901276;29;20429;-71
2022/09/30 00:26:55;;;;;;;4.67;3.17;;;13.50;90.90;;;;;;4911670;29;20563;-71
2022/09/30 00:29:21;;;;;;;3.30;2.50;;;13.50;90.90;;;;;;4899249;29;20534;-71
2022/09/30 00:31:51;;;;;;;3.00;2.80;;;13.50;90.90;;;;;;4904608;29;20432;-71
2022/09/30 00:34:19;;;;;;;5.90;2.80;;;13.40;90.80;;;;;;4932768;29;20479;-71
2022/09/30 00:36:56;;;;;;;6.60;3.30;;;13.40;90.80;;;;;;4913987;29;20467;-71
2022/09/30 00:39:24;;;;;;;3.03;2.73;;;13.40;90.80;;;;;;4934777;29;20456;-71
2022/09/30 00:41:58;;;;;;;3.67;2.97;;;13.40;90.80;;;;;;4933153;29;20979;-71
2022/09/30 00:44:51;;;;;;;3.57;2.80;;;13.40;90.80;;;;;;4934460;29;20421;-71
2022/09/30 00:47:31;;;;;;;4.30;2.77;;;13.40;90.80;;;;;;4918620;29;20451;-71
2022/09/30 00:50:03;;;;;;;5.10;3.17;;;13.40;90.80;;;;;;4911712;29;20424;-71
2022/09/30 00:52:31;;;;;;;9.53;2.93;;;13.30;90.70;;;;;;4900013;29;20404;-71
2022/09/30 00:55:03;;;;;;;3.83;2.93;;;13.30;90.70;;;;;;4919464;29;20514;-71
2022/09/30 00:57:29;;;;;;;3.47;2.97;;;13.30;90.70;;;;;;4918540;29;20418;-71
2022/09/30 01:00:00;;;;;;;5.40;3.40;;;13.30;90.60;;;;;;4895948;29;20450;-71
2022/09/30 01:02:28;;;;;;;4.03;2.83;;;13.30;90.60;;;;;;4883067;29;20880;-71
2022/09/30 01:04:57;;;;;;;3.73;3.10;;;13.30;90.60;;;;;;4905309;29;20448;-71
2022/09/30 01:07:24;;;;;;;3.83;3.10;;;13.30;90.60;;;;;;4900866;29;20654;-71
2022/09/30 01:09:51;;;;;;;3.40;2.30;;;13.30;90.60;;;;;;4914487;29;20420;-71
2022/09/30 01:12:24;;;;;;;4.30;2.70;;;13.30;90.60;;;;;;4918244;29;20413;-71
2022/09/30 01:14:53;;;;;;;4.43;2.77;;;13.30;90.60;;;;;;4928647;29;20544;-71
2022/09/30 01:17:48;;;;;;;3.47;2.67;;;13.30;90.60;;;;;;4914065;29;20409;-71
2022/09/30 01:20:39;;;;;;;4.07;3.07;;;13.30;90.60;;;;;;4905751;29;20828;-71
2022/09/30 01:23:14;;;;;;;3.70;2.40;;;13.20;90.60;;;;;;4917215;29;20436;-71
2022/09/30 01:25:52;;;;;;;4.30;2.97;;;13.20;90.50;;;;;;4904939;29;20523;-71
2022/09/30 01:28:42;;;;;;;3.80;2.83;;;13.20;90.60;;;;;;4882448;29;20468;-71
2022/09/30 01:31:13;;;;;;;4.90;2.87;;;13.20;90.50;;;;;;4912603;29;20440;-71
2022/09/30 01:34:01;;;;;;;3.93;2.90;;;13.20;90.50;;;;;;4916878;29;20403;-71
2022/09/30 01:36:59;;;;;;;3.97;2.80;;;13.20;90.50;;;;;;4914728;29;20479;-71
2022/09/30 01:39:50;;;;;;;3.93;3.23;;;13.20;90.60;;;;;;4919883;29;20440;-71
2022/09/30 01:42:41;;;;;;;5.13;4.10;;;13.10;90.50;;;;;;4917850;29;20761;-71
2022/09/30 01:45:19;;;;;;;3.83;3.17;;;13.10;90.50;;;;;;4909069;29;20433;-71
2022/09/30 01:48:02;;;;;;;4.37;2.97;;;13.10;90.50;;;;;;4897418;29;20491;-71
2022/09/30 01:50:45;;;;;;;4.10;2.77;;;13.10;90.50;;;;;;4907270;29;20421;-71
2022/09/30 01:53:19;;;;;;;3.87;2.90;;;13.10;90.50;;;;;;4917781;29;20443;-71
2022/09/30 01:55:54;;;;;;;4.27;2.80;;;13.10;90.50;;;;;;4905776;29;20463;-71
2022/09/30 01:58:28;;;;;;;4.73;3.33;;;13.10;90.50;;;;;;4913394;29;20493;-71
2022/09/30 02:01:00;;;;;;;4.10;3.43;;;13.10;90.50;;;;;;4895040;29;20461;-71
2022/09/30 02:04:03;;;;;;;4.77;3.33;;;13.10;90.50;;;;;;4917729;29;20417;-71
2022/09/30 02:06:37;;;;;;;4.10;3.30;;;13.00;90.40;;;;;;4888500;29;20463;-71
2022/09/30 02:09:15;;;;;;;3.63;3.07;;;13.00;90.40;;;;;;4924524;29;20566;-71
2022/09/30 02:11:45;;;;;;;3.53;3.10;;;13.00;90.40;;;;;;4898271;29;20434;-71
2022/09/30 02:14:34;;;;;;;4.43;3.40;;;13.00;90.30;;;;;;4901103;29;20488;-71
2022/09/30 02:17:30;;;;;;;4.00;3.10;;;13.00;90.30;;;;;;4916187;29;20759;-71
2022/09/30 02:20:01;;;;;;;3.20;2.90;;;13.00;90.30;;;;;;4906453;29;20464;-71
2022/09/30 02:22:42;;;;;;;4.13;3.17;;;13.00;90.30;;;;;;4899004;29;20460;-71
2022/09/30 02:25:19;;;;;;;5.10;3.40;;;12.90;90.30;;;;;;4915907;29;20463;-71
2022/09/30 02:27:58;;;;;;;3.73;3.10;;;13.00;90.30;;;;;;4927795;29;20484;-71
2022/09/30 02:30:24;;;;;;;4.33;3.50;;;12.90;90.20;;;;;;4878434;29;20484;-71
2022/09/30 02:33:11;;;;;;;3.80;3.00;;;12.90;90.20;;;;;;4895909;29;20492;-71
2022/09/30 02:35:51;;;;;;;5.07;3.57;;;12.90;90.20;;;;;;4881149;29;20476;-71
2022/09/30 02:39:04;;;;;;;6.30;3.20;;;12.90;90.20;;;;;;4902834;29;20473;-71
2022/09/30 02:41:38;;;;;;;3.97;3.07;;;12.90;90.30;;;;;;4906663;29;20517;-70
2022/09/30 02:44:05;;;;;;;3.50;2.90;;;12.90;90.30;;;;;;4895387;29;20429;-70
2022/09/30 02:46:39;;;;;;;4.10;2.90;;;12.90;90.30;;;;;;4897782;29;20474;-71
2022/09/30 02:49:22;;;;;;;3.57;2.77;;;12.80;90.20;;;;;;4890470;29;20840;-70
2022/09/30 02:52:12;;;;;;;3.37;3.00;;;12.80;90.20;;;;;;4896448;29;20860;-70
2022/09/30 02:55:25;;;;;;;3.13;2.83;;;12.80;90.20;;;;;;4913136;29;20458;-71
2022/09/30 02:58:00;;;;;;;4.00;3.20;;;12.80;90.20;;;;;;4830394;29;20977;-71
2022/09/30 03:00:29;;;;;;;3.40;3.10;;;12.80;90.20;;;;;;4851650;29;20935;-71
2022/09/30 03:03:04;;;;;;;4.07;2.93;;;12.80;90.20;;;;;;4851794;29;21013;-71
2022/09/30 03:05:33;;;;;;;3.93;3.53;;;12.80;90.20;;;;;;4851563;29;20542;-71
2022/09/30 03:08:03;;;;;;;4.23;3.67;;;12.80;90.20;;;;;;4851234;29;20467;-71
2022/09/30 03:10:31;;;;;;;4.33;3.80;;;12.80;90.20;;;;;;4854209;29;20443;-71
2022/09/30 03:13:20;;;;;;;4.97;3.70;;;12.80;90.20;;;;;;4848951;29;20470;-71
2022/09/30 03:16:07;;;;;;;3.93;3.17;;;12.80;90.10;;;;;;4852338;29;20462;-71
2022/09/30 03:19:15;;;;;;;5.77;3.50;;;12.70;90.10;;;;;;4842515;29;20501;-71
2022/09/30 03:21:58;;;;;;;5.20;3.93;;;12.70;90.10;;;;;;4842138;29;20431;-71
2022/09/30 03:24:33;;;;;;;4.00;3.33;;;12.70;90.10;;;;;;4841110;29;20453;-71
2022/09/30 03:27:08;;;;;;;3.87;3.47;;;12.70;90.10;;;;;;4842178;29;20523;-71
2022/09/30 03:30:15;;;;;;;4.50;3.13;;;12.70;90.10;;;;;;4906699;29;20447;-71
2022/09/30 03:32:44;;;;;;;4.17;3.77;;;12.70;90.10;;;;;;4842078;29;20466;-71
2022/09/30 03:35:50;;;;;;;3.87;3.40;;;12.70;90.50;;;;;;4887330;29;20831;-71
2022/09/30 03:38:42;;;;;;;5.70;3.80;;;12.70;90.10;;;;;;4915334;29;20502;-71
2022/09/30 03:41:32;;;;;;;4.90;3.33;;;12.60;90.00;;;;;;4913521;29;20440;-71
2022/09/30 03:44:09;;;;;;;4.53;3.80;;;12.60;90.10;;;;;;4910473;29;20517;-71
2022/09/30 03:46:41;;;;;;;4.43;3.23;;;12.60;90.10;;;;;;4875378;29;20535;-71
2022/09/30 03:49:15;;;;;;;4.20;3.60;;;12.60;90.10;;;;;;4914432;29;20454;-71
2022/09/30 03:51:41;;;;;;;4.40;3.40;;;12.60;90.10;;;;;;4930440;29;20401;-71
2022/09/30 03:54:10;;;;;;;6.30;4.13;;;12.60;90.10;;;;;;4907902;29;20440;-71
2022/09/30 03:56:41;;;;;;;4.33;3.93;;;12.60;90.10;;;;;;4911226;29;20437;-71
2022/09/30 03:59:22;;;;;;;4.30;3.90;;;12.60;90.10;;;;;;4902495;29;20499;-71
2022/09/30 04:01:54;;;;;;;5.53;3.20;;;12.60;90.10;;;;;;4930367;29;20455;-71
2022/09/30 04:04:22;;;;;;;3.73;3.10;;;12.60;90.10;;;;;;4904386;29;20421;-71
2022/09/30 04:06:55;;;;;;;4.03;3.57;;;12.60;90.10;;;;;;4915192;29;20452;-71
2022/09/30 04:09:24;;;;;;;3.67;3.30;;;12.60;90.10;;;;;;4905247;29;20436;-71
2022/09/30 04:11:49;;;;;;;5.40;3.43;;;12.50;90.10;;;;;;4915571;29;20782;-71
2022/09/30 04:14:20;;;;;;;4.40;3.10;;;12.50;90.10;;;;;;4881341;29;20425;-71
2022/09/30 04:16:51;;;;;;;6.10;3.53;;;12.50;90.10;;;;;;4914182;29;20461;-71
2022/09/30 04:19:19;;;;;;;4.00;3.60;;;12.50;90.10;;;;;;4906053;29;20474;-72
2022/09/30 04:21:46;;;;;;;3.70;3.40;;;12.50;90.10;;;;;;4920089;29;20422;-72
2022/09/30 04:24:14;;;;;;;3.80;3.33;;;12.50;90.10;;;;;;4903997;29;20504;-73
2022/09/30 04:26:56;;;;;;;4.57;3.20;;;12.50;90.10;;;;;;4915319;29;20966;-72
2022/09/30 04:29:25;;;;;;;6.93;4.60;;;12.50;90.10;;;;;;4906502;29;20445;-73
2022/09/30 04:31:57;;;;;;;4.73;3.70;;;12.50;90.10;;;;;;4914967;29;20419;-72
2022/09/30 04:34:25;;;;;;;4.67;4.00;;;12.50;90.10;;;;;;4914650;29;21220;-72
2022/09/30 04:36:53;;;;;;;4.73;4.17;;;12.50;90.10;;;;;;4898727;29;20671;-73
2022/09/30 04:39:19;;;;;;;5.83;4.00;;;12.50;90.20;;;;;;4931920;29;20512;-72
2022/09/30 04:41:45;;;;;;;4.70;3.57;;;12.50;90.20;;;;;;4936061;29;20424;-72
2022/09/30 04:44:13;;;;;;;4.27;3.47;;;12.50;90.20;;;;;;4903321;29;20185;-73
2022/09/30 04:46:42;;;;;;;4.40;3.97;;;12.40;90.20;;;;;;4913845;29;20453;-72
2022/09/30 04:49:10;;;;;;;4.00;3.47;;;12.40;90.20;;;;;;4900869;29;20474;-72
2022/09/30 04:51:37;;;;;;;3.63;3.33;;;12.40;90.20;;;;;;4905337;29;20446;-72
2022/09/30 04:54:08;;;;;;;5.57;4.50;;;12.40;90.20;;;;;;4908977;29;20456;-72
2022/09/30 04:56:36;;;;;;;4.83;3.70;;;12.40;90.20;;;;;;4895251;29;20499;-72
2022/09/30 04:59:02;;;;;;;4.10;3.67;;;12.40;90.20;;;;;;4886990;29;20435;-72
2022/09/30 05:01:31;;;;;;;4.37;3.37;;;12.40;90.20;;;;;;4913780;29;20466;-72
2022/09/30 05:03:59;;;;;;;4.90;3.40;;;12.40;90.20;;;;;;4897199;29;20477;-73
2022/09/30 05:06:27;;;;;;;3.57;3.27;;;12.40;90.20;;;;;;4908072;29;20845;-73
2022/09/30 05:08:56;;;;;;;3.77;3.30;;;12.30;90.20;;;;;;4882706;29;20476;-73
2022/09/30 05:11:25;;;;;;;5.10;3.63;;;12.30;90.20;;;;;;4913225;29;21000;-73
2022/09/30 05:13:51;;;;;;;4.13;3.60;;;12.30;90.20;;;;;;4936637;29;20426;-73
2022/09/30 05:16:21;;;;;;;3.60;3.30;;;12.30;90.20;;;;;;4898739;29;20440;-72
2022/09/30 05:18:48;;;;;;;4.57;3.60;;;12.30;90.20;;;;;;4903156;29;20919;-72
2022/09/30 05:21:19;;;;;;;4.73;3.30;;;12.30;90.20;;;;;;4924896;29;20454;-74
2022/09/30 05:23:46;;;;;;;4.53;3.80;;;12.30;90.20;;;;;;4885858;29;20429;-72
2022/09/30 05:26:14;;;;;;;4.80;3.93;;;12.30;90.20;;;;;;4911353;29;20494;-72
2022/09/30 05:28:45;;;;;;;5.47;4.00;;;12.30;90.20;;;;;;4883073;29;20483;-74
2022/09/30 05:31:16;;;;;;;4.43;3.47;;;12.30;90.20;;;;;;4908136;29;20544;-74
2022/09/30 05:33:42;;;;;;;5.17;4.10;;;12.30;90.20;;;;;;4913995;29;20480;-74
2022/09/30 05:36:12;;;;;;;5.50;3.63;;;12.30;90.30;;;;;;4904778;29;20498;-74
2022/09/30 05:38:41;;;;;;;5.33;3.90;;;12.30;90.30;;;;;;4913003;29;20457;-74
2022/09/30 05:41:12;;;;;;;5.50;4.33;;;12.20;90.20;;;;;;4867194;29;20433;-74
2022/09/30 05:43:39;;;;;;;3.87;3.43;;;12.20;90.20;;;;;;4886687;29;20445;-74
2022/09/30 05:46:08;;;;;;;3.90;3.50;;;12.20;90.20;;;;;;4917158;29;20841;-73
2022/09/30 05:48:34;;;;;;;4.63;3.33;;;12.20;90.20;;;;;;4884759;29;20918;-74
2022/09/30 05:51:02;;;;;;;4.20;3.33;;;12.20;90.20;;;;;;4913602;29;20444;-75
2022/09/30 05:53:40;;;;;;;4.57;3.73;;;12.20;90.20;;;;;;4931770;29;20525;-75
2022/09/30 05:56:09;;;;;;;6.10;4.40;;;12.20;90.20;;;;;;4915320;29;20470;-75
2022/09/30 05:58:40;;;;;;;4.80;3.50;;;12.20;90.30;;;;;;4915786;29;20421;-75
2022/09/30 06:01:16;;;;;;;5.47;4.50;;;12.20;90.30;;;;;;4915938;29;20439;-74
2022/09/30 06:03:45;;;;;;;6.13;3.10;;;12.20;90.30;;;;;;4916072;29;20954;-74
2022/09/30 06:06:15;;;;;;;4.13;3.67;;;12.20;90.30;;;;;;4912488;29;20471;-72
2022/09/30 06:08:44;;;;;;;3.80;3.50;;;12.10;90.30;;;;;;4910971;29;21006;-73
2022/09/30 06:11:15;;;;;;;8.20;4.10;;;12.10;90.30;;;;;;4943982;29;20471;-73
2022/09/30 06:13:46;;;;;;;5.13;3.90;;;12.10;90.40;;;;;;4884972;29;20431;-73
2022/09/30 06:16:12;;;;;;;4.80;3.87;;;12.20;90.40;;;;;;4914774;29;20446;-73
2022/09/30 06:19:01;;;;;;;4.70;4.13;;;12.10;90.40;;;;;;4915106;29;20440;-73
2022/09/30 06:21:29;;;;;;;4.43;3.67;;;12.10;90.80;;;;;;4916123;29;20490;-73
2022/09/30 06:23:55;;;;;;;4.17;3.73;;;12.10;90.50;;;;;;4899124;29;20957;-73
2022/09/30 06:26:23;;;;;;;4.93;4.17;;;12.10;90.50;;;;;;4915433;29;20531;-73
2022/09/30 06:29:16;;;;;;;3.50;3.20;;;12.10;90.50;;;;;;4915212;29;20457;-73
2022/09/30 06:31:44;;;;;;;5.17;4.00;;;12.10;90.60;;;;;;4915494;29;20427;-73
2022/09/30 06:34:12;;;;;;;4.33;3.93;;;12.10;90.60;;;;;;4914356;29;20446;-73
2022/09/30 06:36:41;;;;;;;4.23;3.33;;;12.10;90.70;;;;;;4942672;29;20483;-73
2022/09/30 06:39:11;;;;;;;7.70;3.73;;;12.10;90.70;;;;;;4915665;29;20573;-73
2022/09/30 06:41:39;;;;;;;4.10;3.37;;;12.10;90.70;;;;;;4932566;29;20448;-74
2022/09/30 06:44:09;;;;;;;4.27;3.87;;;12.10;90.70;;;;;;4914965;29;20443;-74
2022/09/30 06:46:38;;;;;;;5.43;4.27;;;12.10;90.80;;;;;;4915921;29;20469;-74
2022/09/30 06:49:06;;;;;;;4.10;3.70;;;12.10;90.80;;;;;;4930732;29;20448;-74
2022/09/30 06:51:35;;;;;;;5.10;4.10;;;12.10;90.80;;;;;;4916096;29;20401;-74
2022/09/30 06:54:01;;;;;;;3.80;3.07;;;12.10;90.90;;;;;;4914803;29;20432;-74
2022/09/30 06:56:42;;;;;;;4.57;3.33;;;12.10;90.90;;;;;;4913650;29;20845;-73
2022/09/30 06:59:08;;;;;;;3.87;3.47;;;12.10;90.90;;;;;;4914844;29;20407;-74
2022/09/30 07:01:39;;;;;;;3.90;3.50;;;12.10;90.90;;;;;;4914750;29;20427;-74
2022/09/30 07:04:08;;;;;;;3.70;3.40;;;12.10;91.00;;;;;;4911034;29;20579;-73
2022/09/30 07:06:40;;;;;;;4.47;3.90;;;12.10;91.00;;;;;;4912906;29;20450;-73
2022/09/30 07:09:10;;;;;;;6.30;3.90;;;12.10;91.10;;;;;;4915998;29;20490;-71
2022/09/30 07:11:56;;;;;;;4.07;3.70;;;12.10;91.00;;;;;;4916264;29;20436;-72
2022/09/30 07:14:27;;;;;;;6.23;4.00;;;12.10;91.00;;;;;;4915507;29;20506;-71
2022/09/30 07:16:55;;;;;;;3.83;3.33;;;12.10;91.10;;;;;;4914280;29;21029;-72
2022/09/30 07:19:28;;;;;;;5.60;3.83;;;12.10;91.10;;;;;;4914312;29;20419;-71
2022/09/30 07:22:26;;;;;;;4.87;3.60;;;12.10;91.10;;;;;;4915509;29;20440;-71
2022/09/30 07:24:42;;;;;;;6.70;3.93;;;12.10;91.20;;;;;;4913999;29;20431;-71
2022/09/30 07:27:08;;;;;;;5.13;3.60;;;12.10;91.20;;;;;;4900476;29;20474;-73
2022/09/30 07:29:40;;;;;;;8.40;4.10;;;12.10;91.20;;;;;;4914838;29;20174;-73
2022/09/30 07:32:06;;;;;;;4.53;3.83;;;12.10;91.30;;;;;;4914961;29;20424;-70
2022/09/30 07:34:32;;;;;;;6.23;4.03;;;12.00;91.30;;;;;;4915764;29;20906;-71
2022/09/30 07:36:58;;;;;;;5.13;4.33;;;12.00;91.30;;;;;;4917057;29;20461;-71
2022/09/30 07:39:30;;;;;;;5.20;3.87;;;12.00;91.40;;;;;;4885433;29;20421;-70
2022/09/30 07:42:00;;;;;;;4.47;3.67;;;12.00;91.40;;;;;;4916062;29;20436;-71
2022/09/30 07:44:29;;;;;;;5.80;4.57;;;12.10;91.50;;;;;;4915854;29;20409;-71
2022/09/30 07:46:58;;;;;;;6.10;4.57;;;12.00;91.40;;;;;;4916852;29;20453;-71
2022/09/30 07:49:26;;;;;;;4.77;4.27;;;12.00;91.50;;;;;;4900348;29;20455;-71
2022/09/30 07:51:58;;;;;;;5.67;3.53;;;12.10;91.50;;;;;;4914930;29;20400;-71
2022/09/30 07:54:27;;;;;;;5.03;4.23;;;12.10;91.50;;;;;;4916943;29;20416;-71
2022/09/30 07:56:58;;;;;;;4.30;3.90;;;12.10;91.50;;;;;;4916866;29;20499;-71
2022/09/30 07:59:26;;;;;;;6.73;3.63;;;12.10;91.50;;;;;;4915725;29;20412;-71
2022/09/30 08:01:52;;;;;;;5.60;3.93;;;12.10;91.60;;;;;;4914602;29;20883;-71
2022/09/30 08:04:22;;;;;;;6.77;4.60;;;12.10;91.60;;;;;;4915342;29;20427;-71
2022/09/30 08:06:56;;;;;;;7.00;4.30;;;12.10;91.60;;;;;;4916287;29;20438;-71
2022/09/30 08:09:26;;;;;;;3.70;3.40;;;12.10;91.70;;;;;;4916702;29;20446;-71
2022/09/30 08:11:53;;;;;;;4.37;3.97;;;12.10;91.70;;;;;;4931531;29;20401;-71
2022/09/30 08:14:44;;;;;;;7.93;4.27;;;12.10;91.70;;;;;;4882868;29;20438;-70
2022/09/30 08:17:13;;;;;;;4.70;4.30;;;12.10;91.70;;;;;;4879940;29;20471;-71
2022/09/30 08:19:42;;;;;;;4.30;3.90;;;12.10;91.80;;;;;;4891589;29;20439;-71
2022/09/30 08:22:15;;;;;;;6.07;4.70;;;12.10;91.80;;;;;;4914224;29;20559;-71
2022/09/30 08:24:43;;;;;;;9.33;4.87;;;12.10;91.80;;;;;;4915540;29;20979;-71
2022/09/30 08:27:11;;;;;;;6.70;5.10;;;12.10;91.90;;;;;;4915332;29;20468;-70
2022/09/30 08:29:40;;;;;;;6.77;6.07;;;12.10;92.30;;;;;;4915386;29;20906;-71
2022/09/30 08:32:06;;;;;;;7.40;5.80;;;12.10;92.00;;;;;;4899733;29;20420;-71
2022/09/30 08:34:34;;;;;;;8.47;6.77;;;12.20;92.10;;;;;;4931443;29;20184;-71
2022/09/30 08:37:00;;;;;;;7.87;6.13;;;12.20;92.20;;;;;;4898988;29;20479;-73
2022/09/30 08:39:29;;;;;;;6.23;5.63;;;12.20;92.40;;;;;;4912634;29;20553;-75
2022/09/30 08:42:14;;;;;;;6.73;5.43;;;12.20;92.40;;;;;;4905260;29;20464;-72
2022/09/30 08:44:54;;;;;;;6.23;5.63;;;12.20;92.30;;;;;;4894192;29;20884;-73
2022/09/30 08:47:52;;;;;;;5.73;5.10;;;12.20;92.20;;;;;;4901132;29;20621;-73
2022/09/30 08:50:36;;;;;;;8.87;5.80;;;12.30;92.20;;;;;;4898254;29;20807;-74
2022/09/30 08:53:25;;;;;;;8.20;5.97;;;12.30;92.10;;;;;;4898209;29;20443;-73
2022/09/30 08:56:01;;;;;;;6.97;5.40;;;12.30;92.20;;;;;;4903475;29;20463;-73
2022/09/30 08:58:28;;;;;;;6.90;5.77;;;12.30;92.20;;;;;;4896831;29;20453;-75
2022/09/30 09:01:25;;;;;;;7.63;6.83;;;12.30;92.40;;;;;;4899411;29;20435;-76
2022/09/30 09:03:51;;;;;;;7.47;6.30;;;12.40;92.60;;;;;;4922800;29;21110;-77
2022/09/30 09:06:27;;;;;;;10.97;6.00;;;12.40;92.60;;;;;;4897954;29;20594;-77
2022/09/30 09:09:21;;;;;;;6.57;5.87;;;12.40;92.40;;;;;;4892922;29;20482;-75
2022/09/30 09:11:50;;;;;;;9.73;6.93;;;12.50;92.20;;;;;;4886082;29;20425;-76
2022/09/30 09:14:49;;;;;;;7.30;6.23;;;12.50;92.30;;;;;;4912484;29;20420;-76
2022/09/30 09:17:51;;;;;;;6.23;5.13;;;12.50;92.40;;;;;;4928826;29;20228;-75
2022/09/30 09:20:25;;;;;;;7.20;5.60;;;12.50;92.40;;;;;;4930856;29;20909;-75
2022/09/30 09:22:56;;;;;;;7.13;5.83;;;12.50;92.30;;;;;;4907362;29;20468;-76
2022/09/30 09:25:26;;;;;;;7.63;6.33;;;12.50;92.40;;;;;;4908181;29;20484;-74
2022/09/30 09:28:01;;;;;;;7.00;6.13;;;12.60;92.60;;;;;;4916031;29;21079;-73
2022/09/30 09:30:49;;;;;;;7.37;5.90;;;12.60;92.70;;;;;;4913506;29;20448;-74
2022/09/30 09:33:24;;;;;;;9.17;6.50;;;12.60;92.60;;;;;;4904519;29;20455;-74
2022/09/30 09:35:54;;;;;;;7.07;6.23;;;12.60;92.60;;;;;;4912470;29;20461;-75
2022/09/30 09:38:48;;;;;;;6.90;6.10;;;12.60;92.70;;;;;;4906364;29;20434;-74
2022/09/30 09:41:29;;;;;;;9.63;6.57;;;12.60;92.70;;;;;;4911728;29;20451;-72
2022/09/30 09:44:09;;;;;;;10.20;6.33;;;12.70;92.70;;;;;;4924612;29;20444;-73
2022/09/30 09:47:05;;;;;;;8.93;6.80;;;12.70;92.70;;;;;;4911140;29;20463;-71
2022/09/30 09:49:38;;;;;;;8.27;6.50;;;12.70;92.70;;;;;;4909219;29;21023;-72
2022/09/30 09:52:13;;;;;;;8.40;6.30;;;12.80;92.80;;;;;;4911393;29;20427;-72
2022/09/30 09:54:44;;;;;;;8.57;6.27;;;12.80;92.90;;;;;;4898093;29;20964;-71
2022/09/30 09:57:23;;;;;;;7.93;7.13;;;12.80;93.00;;;;;;4900945;29;21038;-71
2022/09/30 10:01:09;;;;;;;8.67;6.97;;;12.80;92.90;;;;;;4910780;29;20949;-71
2022/09/30 10:04:35;;;;;;;8.17;6.57;;;12.90;93.10;;;;;;4898320;29;20443;-71
2022/09/30 10:07:14;;;;;;;11.07;6.80;;;12.90;93.10;;;;;;4887438;29;20455;-73
2022/09/30 10:09:42;;;;;;;10.10;6.67;;;12.90;93.00;;;;;;4912282;29;20945;-73
2022/09/30 10:12:07;;;;;;;9.07;7.63;;;12.90;93.20;;;;;;4918709;29;20436;-73
2022/09/30 10:14:45;;;;;;;8.37;6.87;;;13.00;93.20;;;;;;4904700;29;20424;-74
2022/09/30 10:17:32;;;;;;;11.37;8.03;;;13.00;93.20;;;;;;4904602;29;20317;-75
2022/09/30 10:20:06;;;;;;;7.33;6.60;;;13.00;93.20;;;;;;4912012;29;20486;-75
2022/09/30 10:22:38;;;;;;;9.17;6.70;;;13.00;93.20;;;;;;4872118;29;20570;-75
2022/09/30 10:25:13;;;;;;;9.60;7.47;;;13.10;93.10;;;;;;4898220;29;20432;-75
2022/09/30 10:27:48;;;;;;;8.53;7.63;;;13.10;93.20;;;;;;4897519;29;20527;-74
2022/09/30 10:30:29;;;;;;;9.90;7.00;;;13.20;93.20;;;;;;4898801;29;20424;-75
2022/09/30 10:32:57;;;;;;;9.37;6.90;;;13.20;93.20;;;;;;4913213;29;20507;-72
2022/09/30 10:35:28;;;;;;;7.13;6.40;;;13.20;93.20;;;;;;4900460;29;20454;-73
2022/09/30 10:37:56;;;;;;;9.23;6.60;;;13.30;93.20;;;;;;4894526;29;20447;-72
2022/09/30 10:40:27;;;;;;;8.77;6.67;;;13.30;93.20;;;;;;4915722;29;20526;-72
2022/09/30 10:42:54;;;;;;;8.20;7.40;;;13.30;93.20;;;;;;4909292;29;21079;-73
2022/09/30 10:45:31;;;;;;;12.13;6.50;;;13.30;93.10;;;;;;4915568;29;20455;-72
2022/09/30 10:48:02;;;;;;;8.70;7.73;;;13.30;93.20;;;;;;4896792;29;20499;-72
2022/09/30 10:50:28;;;;;;;8.73;6.83;;;13.40;93.20;;;;;;4921019;29;20519;-73
2022/09/30 10:53:15;;;;;;;8.57;7.70;;;13.40;93.20;;;;;;4874185;29;20977;-73
2022/09/30 10:55:44;;;;;;;9.40;7.20;;;13.40;93.20;;;;;;4896829;29;21002;-73
2022/09/30 10:58:30;;;;;;;7.90;7.10;;;13.50;93.10;;;;;;4914250;29;20863;-72
2022/09/30 11:01:21;;;;;;;7.63;6.80;;;13.50;93.10;;;;;;4894266;29;20504;-73
2022/09/30 11:04:03;;;;;;;8.17;7.30;;;13.50;93.00;;;;;;4979229;23;20514;-74
2022/09/30 11:06:31;;;;;;;6.90;6.17;;;13.60;93.10;;;;;;4905655;29;20464;-74
2022/09/30 11:09:12;;;;;;;10.30;7.37;;;13.60;93.20;;;;;;4949903;29;20472;-77
2022/09/30 11:11:55;;;;;;;7.67;6.63;;;13.60;93.20;;;;;;4907322;29;20460;-78
2022/09/30 11:14:49;;;;;;;8.13;6.70;;;13.70;93.40;;;;;;4919435;29;20850;-77
2022/09/30 11:17:24;;;;;;;7.40;6.03;;;13.70;93.50;;;;;;4936124;29;20484;-78
2022/09/30 11:20:08;;;;;;;10.27;6.43;;;13.70;93.40;;;;;;4941320;28;20428;-78
2022/09/30 11:22:57;;;;;;;10.07;7.80;;;13.80;93.30;;;;;;4939056;29;20454;-79
2022/09/30 11:25:35;;;;;;;8.77;7.10;;;13.80;93.40;;;;;;4921136;29;20454;-78
2022/09/30 11:28:18;;;;;;;9.70;6.10;;;13.90;93.60;;;;;;4934086;29;20458;-75
2022/09/30 11:31:01;;;;;;;6.80;6.20;;;13.90;93.50;;;;;;4957497;28;20590;-74
2022/09/30 11:33:46;;;;;;;7.10;5.70;;;13.90;93.40;;;;;;4918508;29;20443;-77
2022/09/30 11:36:56;;;;;;;7.73;5.73;;;13.90;93.20;;;;;;4914935;29;20620;-75
2022/09/30 11:39:41;;;;;;;6.27;5.20;;;14.00;93.20;;;;;;4883259;29;20405;-76
2022/09/30 11:42:40;;;;;;;9.60;5.73;;;14.00;93.20;;;;;;4880356;29;20934;-75
2022/09/30 11:45:20;;;;;;;8.60;6.00;;;14.00;93.20;;;;;;4907343;29;20667;-74
2022/09/30 11:47:46;;;;;;;6.87;5.20;;;14.10;93.40;;;;;;4952864;28;20470;-75
2022/09/30 11:50:37;;;;;;;6.87;5.47;;;14.10;93.40;;;;;;4940093;29;20439;-76
2022/09/30 11:53:32;;;;;;;10.20;5.97;;;14.10;93.30;;;;;;4935160;29;20534;-75
2022/09/30 11:56:07;;;;;;;9.27;6.43;;;14.20;93.20;;;;;;4928449;29;20457;-72
2022/09/30 11:58:40;;;;;;;7.50;5.60;;;14.20;93.20;;;;;;4952044;29;20517;-73
2022/09/30 12:01:29;;;;;;;7.77;6.10;;;14.20;93.10;;;;;;4952073;28;20414;-74
2022/09/30 12:04:05;;;;;;;9.40;6.27;;;14.20;93.00;;;;;;4934597;29;20447;-74
2022/09/30 12:06:42;;;;;;;6.87;6.17;;;14.30;93.00;;;;;;4918178;29;20552;-72
2022/09/30 12:09:25;;;;;;;7.03;5.30;;;14.30;93.00;;;;;;4910787;29;20489;-73
2022/09/30 12:12:05;;;;;;;7.60;5.07;;;14.30;92.90;;;;;;4954089;28;20966;-74
2022/09/30 12:14:58;;;;;;;7.93;5.13;;;14.30;92.90;;;;;;4936632;29;20528;-75
2022/09/30 12:17:30;;;;;;;6.20;4.70;;;14.40;92.90;;;;;;4938857;29;20445;-74
2022/09/30 12:20:24;;;;;;;6.87;4.70;;;14.40;92.90;;;;;;4922161;29;20436;-75
2022/09/30 12:22:57;;;;;;;8.10;5.30;;;14.40;92.90;;;;;;4942324;29;20428;-73
2022/09/30 12:25:52;;;;;;;4.47;3.90;;;14.40;92.90;;;;;;4938185;29;20506;-74
2022/09/30 12:31:41;;;;;;;6.00;4.20;;;14.50;92.90;;;;;;4938067;29;20492;-74
2022/09/30 12:34:36;;;;;;;5.10;4.40;;;14.50;92.80;;;;;;4935340;29;20482;-74
2022/09/30 12:37:25;;;;;;;5.60;4.73;;;14.50;92.70;;;;;;4921448;29;20473;-74
2022/09/30 12:40:19;;;;;;;4.90;4.30;;;14.50;92.70;;;;;;4940242;29;20399;-73
2022/09/30 12:43:06;;;;;;;6.90;4.30;;;14.60;93.10;;;;;;4948036;28;20442;-74
2022/09/30 12:45:47;;;;;;;5.10;3.90;;;14.60;92.70;;;;;;4937863;29;20960;-74
2022/09/30 12:48:22;;;;;;;6.40;3.57;;;14.60;92.70;;;;;;4932064;29;20486;-73
2022/09/30 12:50:56;;;;;;;6.73;3.93;;;14.70;92.70;;;;;;4955824;29;20873;-74
2022/09/30 12:53:31;;;;;;;4.70;3.70;;;14.70;92.70;;;;;;4936545;29;20424;-74
2022/09/30 12:56:10;;;;;;;5.70;3.73;;;14.70;92.60;;;;;;4936203;29;20454;-74
2022/09/30 12:58:45;;;;;;;3.80;3.50;;;14.70;92.50;;;;;;4935453;29;20437;-74
2022/09/30 13:01:17;;;;;;;6.07;3.97;;;14.70;92.50;;;;;;4920028;29;20519;-74
2022/09/30 13:04:01;;;;;;;4.37;3.70;;;14.80;92.40;;;;;;4935794;29;20530;-73
2022/09/30 13:06:47;;;;;;;3.83;3.43;;;14.80;92.40;;;;;;4934778;29;20591;-73
2022/09/30 13:09:16;;;;;;;4.80;4.10;;;14.80;92.30;;;;;;4922858;28;20485;-74
2022/09/30 13:12:24;;;;;;;6.27;3.93;;;14.80;92.20;;;;;;4946890;29;20437;-74
2022/09/30 13:15:36;;;;;;;3.97;3.57;;;14.90;92.20;;;;;;4917271;29;20430;-73
2022/09/30 13:18:32;;;;;;;4.23;3.43;;;14.90;92.10;;;;;;4938846;29;20430;-74
2022/09/30 13:21:07;;;;;;;4.37;3.97;;;14.90;91.90;;;;;;4946504;29;20455;-74
2022/09/30 13:23:55;;;;;;;4.17;3.77;;;14.90;91.90;;;;;;4912453;29;20500;-74
2022/09/30 13:26:27;;;;;;;5.00;3.87;;;15.00;91.90;;;;;;4947300;28;20820;-74
2022/09/30 13:28:59;;;;;;;4.40;3.90;;;15.00;92.00;;;;;;4938920;28;20476;-74
2022/09/30 13:32:05;;;;;;;3.37;3.07;;;15.00;91.90;;;;;;4970376;28;20438;-74
2022/09/30 13:34:34;;;;;;;4.53;3.30;;;15.00;91.90;;;;;;4965455;28;20436;-74
2022/09/30 13:37:31;;;;;;;3.67;3.37;;;15.00;91.90;;;;;;4938060;28;20870;-74